sensor_id;sensor_type;location;lat;lon;timestamp;P1;durP1;ratioP1;P2;durP2;ratioP2
63276;SDS011;49403;51.046;13.780;2022-08-21T00:00:17;41.85;;;23.38;;
63276;SDS011;49403;51.046;13.780;2022-08-21T00:00:50;41.55;;;22.35;;
63276;SDS011;49403;51.046;13.780;2022-08-21T00:01:22;38.92;;;21.40;;
63276;SDS011;49403;51.046;13.780;2022-08-21T00:01:56;38.03;;;22.20;;
63276;SDS011;49403;51.046;13.780;2022-08-21T00:02:27;40.13;;;23.08;;
63276;SDS011;49403;51.046;13.780;2022-08-21T00:03:00;37.70;;;22.20;;
63276;SDS011;49403;51.046;13.780;2022-08-21T00:03:33;40.92;;;23.65;;
63276;SDS011;49403;51.046;13.780;2022-08-21T00:04:05;39.88;;;22.77;;
63276;SDS011;49403;51.046;13.780;2022-08-21T00:04:37;44.03;;;23.15;;
63276;SDS011;49403;51.046;13.780;2022-08-21T00:05:08;47.10;;;23.65;;
63276;SDS011;49403;51.046;13.780;2022-08-21T00:05:40;43.47;;;24.00;;
63276;SDS011;49403;51.046;13.780;2022-08-21T00:06:14;46.63;;;25.00;;
63276;SDS011;49403;51.046;13.780;2022-08-21T00:06:45;50.38;;;24.70;;
63276;SDS011;49403;51.046;13.780;2022-08-21T00:07:17;46.92;;;24.40;;
63276;SDS011;49403;51.046;13.780;2022-08-21T00:07:49;47.67;;;24.77;;
63276;SDS011;49403;51.046;13.780;2022-08-21T00:08:20;46.05;;;24.73;;
63276;SDS011;49403;51.046;13.780;2022-08-21T00:08:51;47.95;;;24.17;;
63276;SDS011;49403;51.046;13.780;2022-08-21T00:09:22;45.67;;;24.60;;
63276;SDS011;49403;51.046;13.780;2022-08-21T00:09:54;51.20;;;25.52;;
63276;SDS011;49403;51.046;13.780;2022-08-21T00:10:25;46.20;;;23.77;;
63276;SDS011;49403;51.046;13.780;2022-08-21T00:10:56;50.65;;;24.95;;
63276;SDS011;49403;51.046;13.780;2022-08-21T00:11:27;49.55;;;25.50;;
63276;SDS011;49403;51.046;13.780;2022-08-21T00:11:58;48.83;;;24.58;;
63276;SDS011;49403;51.046;13.780;2022-08-21T00:12:28;46.03;;;24.90;;
63276;SDS011;49403;51.046;13.780;2022-08-21T00:13:02;48.40;;;24.85;;
63276;SDS011;49403;51.046;13.780;2022-08-21T00:13:34;45.72;;;24.17;;
63276;SDS011;49403;51.046;13.780;2022-08-21T00:14:07;42.30;;;24.38;;
63276;SDS011;49403;51.046;13.780;2022-08-21T00:14:39;51.03;;;24.15;;
63276;SDS011;49403;51.046;13.780;2022-08-21T00:15:10;37.90;;;21.88;;
63276;SDS011;49403;51.046;13.780;2022-08-21T00:15:44;35.45;;;20.88;;
63276;SDS011;49403;51.046;13.780;2022-08-21T00:16:15;39.58;;;21.73;;
63276;SDS011;49403;51.046;13.780;2022-08-21T00:16:46;38.35;;;22.40;;
63276;SDS011;49403;51.046;13.780;2022-08-21T00:17:17;37.38;;;22.13;;
63276;SDS011;49403;51.046;13.780;2022-08-21T00:17:48;39.30;;;22.80;;
63276;SDS011;49403;51.046;13.780;2022-08-21T00:18:19;39.00;;;21.65;;
63276;SDS011;49403;51.046;13.780;2022-08-21T00:18:50;38.60;;;22.10;;
63276;SDS011;49403;51.046;13.780;2022-08-21T00:19:21;36.33;;;22.10;;
63276;SDS011;49403;51.046;13.780;2022-08-21T00:19:54;35.13;;;22.35;;
63276;SDS011;49403;51.046;13.780;2022-08-21T00:20:25;40.30;;;22.70;;
63276;SDS011;49403;51.046;13.780;2022-08-21T00:20:57;38.47;;;22.42;;
63276;SDS011;49403;51.046;13.780;2022-08-21T00:21:28;37.67;;;22.25;;
63276;SDS011;49403;51.046;13.780;2022-08-21T00:21:58;39.95;;;23.08;;
63276;SDS011;49403;51.046;13.780;2022-08-21T00:22:30;41.63;;;22.85;;
63276;SDS011;49403;51.046;13.780;2022-08-21T00:23:00;42.97;;;22.70;;
63276;SDS011;49403;51.046;13.780;2022-08-21T00:23:32;38.22;;;22.58;;
63276;SDS011;49403;51.046;13.780;2022-08-21T00:24:05;40.58;;;22.48;;
63276;SDS011;49403;51.046;13.780;2022-08-21T00:24:36;42.08;;;23.27;;
63276;SDS011;49403;51.046;13.780;2022-08-21T00:25:07;37.13;;;21.52;;
63276;SDS011;49403;51.046;13.780;2022-08-21T00:25:40;39.22;;;22.98;;
63276;SDS011;49403;51.046;13.780;2022-08-21T00:26:12;40.05;;;22.70;;
63276;SDS011;49403;51.046;13.780;2022-08-21T00:26:43;38.17;;;22.55;;
63276;SDS011;49403;51.046;13.780;2022-08-21T00:27:14;42.28;;;23.02;;
63276;SDS011;49403;51.046;13.780;2022-08-21T00:27:45;40.53;;;23.15;;
63276;SDS011;49403;51.046;13.780;2022-08-21T00:28:19;38.35;;;22.73;;
63276;SDS011;49403;51.046;13.780;2022-08-21T00:28:50;39.05;;;22.05;;
63276;SDS011;49403;51.046;13.780;2022-08-21T00:29:21;39.90;;;22.73;;
63276;SDS011;49403;51.046;13.780;2022-08-21T00:29:52;37.92;;;22.75;;
63276;SDS011;49403;51.046;13.780;2022-08-21T00:30:24;43.75;;;23.17;;
63276;SDS011;49403;51.046;13.780;2022-08-21T00:30:56;40.95;;;22.77;;
63276;SDS011;49403;51.046;13.780;2022-08-21T00:31:27;38.03;;;22.17;;
63276;SDS011;49403;51.046;13.780;2022-08-21T00:31:58;36.80;;;22.73;;
63276;SDS011;49403;51.046;13.780;2022-08-21T00:32:29;38.15;;;21.98;;
63276;SDS011;49403;51.046;13.780;2022-08-21T00:33:00;39.25;;;22.35;;
63276;SDS011;49403;51.046;13.780;2022-08-21T00:33:32;40.63;;;22.63;;
63276;SDS011;49403;51.046;13.780;2022-08-21T00:34:03;41.03;;;23.02;;
63276;SDS011;49403;51.046;13.780;2022-08-21T00:34:34;38.70;;;22.35;;
63276;SDS011;49403;51.046;13.780;2022-08-21T00:35:11;38.28;;;22.08;;
63276;SDS011;49403;51.046;13.780;2022-08-21T00:35:44;36.47;;;22.02;;
63276;SDS011;49403;51.046;13.780;2022-08-21T00:36:15;36.97;;;22.42;;
63276;SDS011;49403;51.046;13.780;2022-08-21T00:36:46;39.70;;;22.92;;
63276;SDS011;49403;51.046;13.780;2022-08-21T00:37:17;39.15;;;22.27;;
63276;SDS011;49403;51.046;13.780;2022-08-21T00:37:48;40.95;;;23.30;;
63276;SDS011;49403;51.046;13.780;2022-08-21T00:38:19;41.25;;;22.42;;
63276;SDS011;49403;51.046;13.780;2022-08-21T00:38:50;44.88;;;23.75;;
63276;SDS011;49403;51.046;13.780;2022-08-21T00:39:21;43.75;;;23.05;;
63276;SDS011;49403;51.046;13.780;2022-08-21T00:39:52;43.42;;;23.50;;
63276;SDS011;49403;51.046;13.780;2022-08-21T00:40:25;42.58;;;23.15;;
63276;SDS011;49403;51.046;13.780;2022-08-21T00:41:01;41.67;;;23.38;;
63276;SDS011;49403;51.046;13.780;2022-08-21T00:41:34;39.47;;;22.38;;
63276;SDS011;49403;51.046;13.780;2022-08-21T00:42:07;37.17;;;22.50;;
63276;SDS011;49403;51.046;13.780;2022-08-21T00:42:38;38.17;;;22.00;;
63276;SDS011;49403;51.046;13.780;2022-08-21T00:43:10;40.03;;;22.38;;
63276;SDS011;49403;51.046;13.780;2022-08-21T00:43:42;39.60;;;21.75;;
63276;SDS011;49403;51.046;13.780;2022-08-21T00:44:13;39.58;;;22.63;;
63276;SDS011;49403;51.046;13.780;2022-08-21T00:44:46;45.53;;;23.98;;
63276;SDS011;49403;51.046;13.780;2022-08-21T00:45:18;40.47;;;22.58;;
63276;SDS011;49403;51.046;13.780;2022-08-21T00:45:49;38.10;;;22.40;;
63276;SDS011;49403;51.046;13.780;2022-08-21T00:46:21;40.53;;;21.70;;
63276;SDS011;49403;51.046;13.780;2022-08-21T00:46:52;39.65;;;23.15;;
63276;SDS011;49403;51.046;13.780;2022-08-21T00:47:23;41.55;;;22.42;;
63276;SDS011;49403;51.046;13.780;2022-08-21T00:47:54;39.00;;;22.00;;
63276;SDS011;49403;51.046;13.780;2022-08-21T00:48:26;41.42;;;22.63;;
63276;SDS011;49403;51.046;13.780;2022-08-21T00:48:57;41.88;;;22.85;;
63276;SDS011;49403;51.046;13.780;2022-08-21T00:49:27;35.40;;;21.70;;
63276;SDS011;49403;51.046;13.780;2022-08-21T00:49:58;41.35;;;22.88;;
63276;SDS011;49403;51.046;13.780;2022-08-21T00:50:31;37.88;;;22.85;;
63276;SDS011;49403;51.046;13.780;2022-08-21T00:51:06;44.65;;;23.27;;
63276;SDS011;49403;51.046;13.780;2022-08-21T00:51:52;37.28;;;21.98;;
63276;SDS011;49403;51.046;13.780;2022-08-21T00:52:28;43.58;;;22.45;;
63276;SDS011;49403;51.046;13.780;2022-08-21T00:53:02;40.38;;;23.00;;
63276;SDS011;49403;51.046;13.780;2022-08-21T00:53:36;43.40;;;22.73;;
63276;SDS011;49403;51.046;13.780;2022-08-21T00:54:09;41.17;;;22.48;;
63276;SDS011;49403;51.046;13.780;2022-08-21T00:54:41;38.65;;;22.27;;
63276;SDS011;49403;51.046;13.780;2022-08-21T00:55:13;40.85;;;22.63;;
63276;SDS011;49403;51.046;13.780;2022-08-21T00:55:45;38.63;;;22.60;;
63276;SDS011;49403;51.046;13.780;2022-08-21T00:56:16;38.65;;;22.50;;
63276;SDS011;49403;51.046;13.780;2022-08-21T00:56:48;38.13;;;22.30;;
63276;SDS011;49403;51.046;13.780;2022-08-21T00:57:24;40.72;;;22.80;;
63276;SDS011;49403;51.046;13.780;2022-08-21T00:57:59;40.45;;;22.83;;
63276;SDS011;49403;51.046;13.780;2022-08-21T00:58:31;38.28;;;22.75;;
63276;SDS011;49403;51.046;13.780;2022-08-21T00:59:02;41.58;;;23.88;;
63276;SDS011;49403;51.046;13.780;2022-08-21T00:59:35;39.17;;;22.63;;
63276;SDS011;49403;51.046;13.780;2022-08-21T01:00:09;41.60;;;23.70;;
63276;SDS011;49403;51.046;13.780;2022-08-21T01:00:44;39.60;;;23.23;;
63276;SDS011;49403;51.046;13.780;2022-08-21T01:01:17;40.67;;;23.35;;
63276;SDS011;49403;51.046;13.780;2022-08-21T01:01:48;37.75;;;22.95;;
63276;SDS011;49403;51.046;13.780;2022-08-21T01:02:19;37.63;;;22.85;;
63276;SDS011;49403;51.046;13.780;2022-08-21T01:02:50;39.58;;;22.83;;
63276;SDS011;49403;51.046;13.780;2022-08-21T01:03:22;41.55;;;23.45;;
63276;SDS011;49403;51.046;13.780;2022-08-21T01:03:55;38.63;;;22.95;;
63276;SDS011;49403;51.046;13.780;2022-08-21T01:04:26;35.65;;;22.27;;
63276;SDS011;49403;51.046;13.780;2022-08-21T01:04:57;42.08;;;23.83;;
63276;SDS011;49403;51.046;13.780;2022-08-21T01:05:28;37.78;;;22.23;;
63276;SDS011;49403;51.046;13.780;2022-08-21T01:05:59;38.67;;;23.13;;
63276;SDS011;49403;51.046;13.780;2022-08-21T01:06:30;37.63;;;22.52;;
63276;SDS011;49403;51.046;13.780;2022-08-21T01:07:01;38.35;;;22.98;;
63276;SDS011;49403;51.046;13.780;2022-08-21T01:07:32;40.03;;;23.85;;
63276;SDS011;49403;51.046;13.780;2022-08-21T01:08:04;37.05;;;23.02;;
63276;SDS011;49403;51.046;13.780;2022-08-21T01:08:37;40.22;;;22.50;;
63276;SDS011;49403;51.046;13.780;2022-08-21T01:09:08;37.03;;;22.25;;
63276;SDS011;49403;51.046;13.780;2022-08-21T01:09:40;39.72;;;23.48;;
63276;SDS011;49403;51.046;13.780;2022-08-21T01:10:11;42.95;;;23.15;;
63276;SDS011;49403;51.046;13.780;2022-08-21T01:10:42;40.35;;;22.98;;
63276;SDS011;49403;51.046;13.780;2022-08-21T01:11:16;38.75;;;23.98;;
63276;SDS011;49403;51.046;13.780;2022-08-21T01:11:48;40.90;;;23.58;;
63276;SDS011;49403;51.046;13.780;2022-08-21T01:12:19;38.80;;;23.40;;
63276;SDS011;49403;51.046;13.780;2022-08-21T01:12:51;38.80;;;22.92;;
63276;SDS011;49403;51.046;13.780;2022-08-21T01:13:25;38.28;;;22.88;;
63276;SDS011;49403;51.046;13.780;2022-08-21T01:13:57;39.28;;;23.40;;
63276;SDS011;49403;51.046;13.780;2022-08-21T01:14:28;41.40;;;24.08;;
63276;SDS011;49403;51.046;13.780;2022-08-21T01:15:01;39.10;;;22.77;;
63276;SDS011;49403;51.046;13.780;2022-08-21T01:15:35;38.85;;;23.15;;
63276;SDS011;49403;51.046;13.780;2022-08-21T01:16:09;40.83;;;22.77;;
63276;SDS011;49403;51.046;13.780;2022-08-21T01:16:41;36.95;;;23.00;;
63276;SDS011;49403;51.046;13.780;2022-08-21T01:17:14;38.78;;;23.40;;
63276;SDS011;49403;51.046;13.780;2022-08-21T01:17:47;42.13;;;23.05;;
63276;SDS011;49403;51.046;13.780;2022-08-21T01:18:19;37.50;;;22.92;;
63276;SDS011;49403;51.046;13.780;2022-08-21T01:18:51;40.80;;;23.33;;
63276;SDS011;49403;51.046;13.780;2022-08-21T01:19:22;37.97;;;23.52;;
63276;SDS011;49403;51.046;13.780;2022-08-21T01:19:57;40.90;;;23.48;;
63276;SDS011;49403;51.046;13.780;2022-08-21T01:20:29;38.15;;;22.95;;
63276;SDS011;49403;51.046;13.780;2022-08-21T01:21:33;38.47;;;22.83;;
63276;SDS011;49403;51.046;13.780;2022-08-21T01:22:03;40.08;;;22.58;;
63276;SDS011;49403;51.046;13.780;2022-08-21T01:22:35;37.17;;;22.67;;
63276;SDS011;49403;51.046;13.780;2022-08-21T01:23:06;35.90;;;22.10;;
63276;SDS011;49403;51.046;13.780;2022-08-21T01:23:38;40.17;;;22.58;;
63276;SDS011;49403;51.046;13.780;2022-08-21T01:24:11;36.38;;;21.67;;
63276;SDS011;49403;51.046;13.780;2022-08-21T01:24:42;38.35;;;21.67;;
63276;SDS011;49403;51.046;13.780;2022-08-21T01:25:14;33.15;;;22.10;;
63276;SDS011;49403;51.046;13.780;2022-08-21T01:25:46;35.30;;;21.13;;
63276;SDS011;49403;51.046;13.780;2022-08-21T01:26:18;36.53;;;22.25;;
63276;SDS011;49403;51.046;13.780;2022-08-21T01:26:52;35.42;;;21.92;;
63276;SDS011;49403;51.046;13.780;2022-08-21T01:27:24;36.33;;;21.85;;
63276;SDS011;49403;51.046;13.780;2022-08-21T01:27:55;35.65;;;22.35;;
63276;SDS011;49403;51.046;13.780;2022-08-21T01:28:27;36.95;;;22.10;;
63276;SDS011;49403;51.046;13.780;2022-08-21T01:30:14;34.38;;;18.80;;
63276;SDS011;49403;51.046;13.780;2022-08-21T01:30:53;35.38;;;20.38;;
63276;SDS011;49403;51.046;13.780;2022-08-21T01:31:25;34.97;;;20.73;;
63276;SDS011;49403;51.046;13.780;2022-08-21T01:31:58;34.65;;;20.20;;
63276;SDS011;49403;51.046;13.780;2022-08-21T01:32:33;30.38;;;19.65;;
63276;SDS011;49403;51.046;13.780;2022-08-21T01:33:04;33.60;;;19.98;;
63276;SDS011;49403;51.046;13.780;2022-08-21T01:33:35;29.85;;;17.63;;
63276;SDS011;49403;51.046;13.780;2022-08-21T01:34:07;26.45;;;16.88;;
63276;SDS011;49403;51.046;13.780;2022-08-21T01:34:41;27.17;;;17.40;;
63276;SDS011;49403;51.046;13.780;2022-08-21T01:35:14;30.35;;;18.30;;
63276;SDS011;49403;51.046;13.780;2022-08-21T01:35:47;28.30;;;17.08;;
63276;SDS011;49403;51.046;13.780;2022-08-21T01:36:17;31.95;;;17.92;;
63276;SDS011;49403;51.046;13.780;2022-08-21T01:36:48;27.88;;;16.75;;
63276;SDS011;49403;51.046;13.780;2022-08-21T01:37:20;27.33;;;17.08;;
63276;SDS011;49403;51.046;13.780;2022-08-21T01:37:52;25.52;;;16.67;;
63276;SDS011;49403;51.046;13.780;2022-08-21T01:38:23;29.45;;;17.83;;
63276;SDS011;49403;51.046;13.780;2022-08-21T01:38:54;27.73;;;16.10;;
63276;SDS011;49403;51.046;13.780;2022-08-21T01:39:26;27.30;;;17.10;;
63276;SDS011;49403;51.046;13.780;2022-08-21T01:39:57;30.58;;;17.75;;
63276;SDS011;49403;51.046;13.780;2022-08-21T01:40:28;27.40;;;16.98;;
63276;SDS011;49403;51.046;13.780;2022-08-21T01:40:58;31.80;;;17.08;;
63276;SDS011;49403;51.046;13.780;2022-08-21T01:41:29;25.38;;;16.38;;
63276;SDS011;49403;51.046;13.780;2022-08-21T01:42:00;27.60;;;17.20;;
63276;SDS011;49403;51.046;13.780;2022-08-21T01:42:32;26.73;;;16.42;;
63276;SDS011;49403;51.046;13.780;2022-08-21T01:43:03;22.67;;;15.23;;
63276;SDS011;49403;51.046;13.780;2022-08-21T01:43:34;23.95;;;15.73;;
63276;SDS011;49403;51.046;13.780;2022-08-21T01:44:05;26.05;;;15.43;;
63276;SDS011;49403;51.046;13.780;2022-08-21T01:44:36;23.60;;;14.77;;
63276;SDS011;49403;51.046;13.780;2022-08-21T01:45:07;23.67;;;15.38;;
63276;SDS011;49403;51.046;13.780;2022-08-21T01:45:38;23.75;;;15.32;;
63276;SDS011;49403;51.046;13.780;2022-08-21T01:46:09;22.38;;;15.18;;
63276;SDS011;49403;51.046;13.780;2022-08-21T01:46:41;23.48;;;15.07;;
63276;SDS011;49403;51.046;13.780;2022-08-21T01:47:13;26.95;;;15.73;;
63276;SDS011;49403;51.046;13.780;2022-08-21T01:47:45;25.42;;;15.65;;
63276;SDS011;49403;51.046;13.780;2022-08-21T01:48:17;25.00;;;15.35;;
63276;SDS011;49403;51.046;13.780;2022-08-21T01:48:48;29.08;;;15.93;;
63276;SDS011;49403;51.046;13.780;2022-08-21T01:49:19;26.08;;;15.20;;
63276;SDS011;49403;51.046;13.780;2022-08-21T01:49:50;29.38;;;15.65;;
63276;SDS011;49403;51.046;13.780;2022-08-21T01:50:21;25.23;;;15.57;;
63276;SDS011;49403;51.046;13.780;2022-08-21T01:50:52;25.63;;;14.63;;
63276;SDS011;49403;51.046;13.780;2022-08-21T01:51:23;25.20;;;14.65;;
63276;SDS011;49403;51.046;13.780;2022-08-21T01:51:54;25.23;;;14.75;;
63276;SDS011;49403;51.046;13.780;2022-08-21T01:52:25;20.45;;;14.00;;
63276;SDS011;49403;51.046;13.780;2022-08-21T01:52:57;20.75;;;13.40;;
63276;SDS011;49403;51.046;13.780;2022-08-21T01:53:28;22.83;;;14.20;;
63276;SDS011;49403;51.046;13.780;2022-08-21T01:53:58;21.30;;;13.70;;
63276;SDS011;49403;51.046;13.780;2022-08-21T01:54:29;23.30;;;14.35;;
63276;SDS011;49403;51.046;13.780;2022-08-21T01:55:01;22.77;;;13.75;;
63276;SDS011;49403;51.046;13.780;2022-08-21T01:55:32;23.13;;;14.20;;
63276;SDS011;49403;51.046;13.780;2022-08-21T01:56:04;20.30;;;13.43;;
63276;SDS011;49403;51.046;13.780;2022-08-21T01:56:38;20.25;;;13.35;;
63276;SDS011;49403;51.046;13.780;2022-08-21T01:57:11;22.95;;;13.70;;
63276;SDS011;49403;51.046;13.780;2022-08-21T01:57:43;23.85;;;13.68;;
63276;SDS011;49403;51.046;13.780;2022-08-21T01:58:15;22.15;;;13.45;;
63276;SDS011;49403;51.046;13.780;2022-08-21T01:58:46;21.40;;;12.70;;
63276;SDS011;49403;51.046;13.780;2022-08-21T01:59:17;19.98;;;13.23;;
63276;SDS011;49403;51.046;13.780;2022-08-21T01:59:48;19.92;;;12.93;;
63276;SDS011;49403;51.046;13.780;2022-08-21T02:00:22;18.92;;;12.70;;
63276;SDS011;49403;51.046;13.780;2022-08-21T02:00:53;18.00;;;12.40;;
63276;SDS011;49403;51.046;13.780;2022-08-21T02:01:24;18.50;;;12.30;;
63276;SDS011;49403;51.046;13.780;2022-08-21T02:01:55;19.33;;;12.40;;
63276;SDS011;49403;51.046;13.780;2022-08-21T02:02:26;18.42;;;12.48;;
63276;SDS011;49403;51.046;13.780;2022-08-21T02:02:57;20.88;;;12.80;;
63276;SDS011;49403;51.046;13.780;2022-08-21T02:03:28;17.38;;;12.20;;
63276;SDS011;49403;51.046;13.780;2022-08-21T02:03:59;18.77;;;12.13;;
63276;SDS011;49403;51.046;13.780;2022-08-21T02:04:30;17.30;;;11.93;;
63276;SDS011;49403;51.046;13.780;2022-08-21T02:05:02;17.85;;;12.18;;
63276;SDS011;49403;51.046;13.780;2022-08-21T02:05:33;18.50;;;11.85;;
63276;SDS011;49403;51.046;13.780;2022-08-21T02:06:05;16.38;;;11.70;;
63276;SDS011;49403;51.046;13.780;2022-08-21T02:06:37;17.98;;;12.07;;
63276;SDS011;49403;51.046;13.780;2022-08-21T02:07:08;19.05;;;12.20;;
63276;SDS011;49403;51.046;13.780;2022-08-21T02:07:43;15.68;;;11.02;;
63276;SDS011;49403;51.046;13.780;2022-08-21T02:08:16;16.23;;;11.57;;
63276;SDS011;49403;51.046;13.780;2022-08-21T02:08:47;17.88;;;11.73;;
63276;SDS011;49403;51.046;13.780;2022-08-21T02:09:20;16.77;;;11.23;;
63276;SDS011;49403;51.046;13.780;2022-08-21T02:09:51;16.25;;;10.65;;
63276;SDS011;49403;51.046;13.780;2022-08-21T02:10:24;17.10;;;10.88;;
63276;SDS011;49403;51.046;13.780;2022-08-21T02:10:57;15.40;;;11.20;;
63276;SDS011;49403;51.046;13.780;2022-08-21T02:11:28;17.42;;;11.00;;
63276;SDS011;49403;51.046;13.780;2022-08-21T02:12:01;16.02;;;10.70;;
63276;SDS011;49403;51.046;13.780;2022-08-21T02:12:32;14.98;;;10.70;;
63276;SDS011;49403;51.046;13.780;2022-08-21T02:13:03;16.85;;;10.63;;
63276;SDS011;49403;51.046;13.780;2022-08-21T02:13:34;15.95;;;10.60;;
63276;SDS011;49403;51.046;13.780;2022-08-21T02:14:05;16.27;;;11.20;;
63276;SDS011;49403;51.046;13.780;2022-08-21T02:14:41;16.20;;;10.93;;
63276;SDS011;49403;51.046;13.780;2022-08-21T02:15:12;17.45;;;11.00;;
63276;SDS011;49403;51.046;13.780;2022-08-21T02:15:44;18.63;;;10.25;;
63276;SDS011;49403;51.046;13.780;2022-08-21T02:16:15;15.25;;;10.50;;
63276;SDS011;49403;51.046;13.780;2022-08-21T02:16:46;15.35;;;10.45;;
63276;SDS011;49403;51.046;13.780;2022-08-21T02:17:17;16.33;;;10.88;;
63276;SDS011;49403;51.046;13.780;2022-08-21T02:17:50;15.93;;;10.73;;
63276;SDS011;49403;51.046;13.780;2022-08-21T02:18:22;14.75;;;10.75;;
63276;SDS011;49403;51.046;13.780;2022-08-21T02:18:53;15.38;;;10.68;;
63276;SDS011;49403;51.046;13.780;2022-08-21T02:19:24;14.73;;;10.02;;
63276;SDS011;49403;51.046;13.780;2022-08-21T02:19:55;16.50;;;10.52;;
63276;SDS011;49403;51.046;13.780;2022-08-21T02:20:28;15.90;;;10.70;;
63276;SDS011;49403;51.046;13.780;2022-08-21T02:21:02;13.98;;;10.15;;
63276;SDS011;49403;51.046;13.780;2022-08-21T02:21:34;14.85;;;10.43;;
63276;SDS011;49403;51.046;13.780;2022-08-21T02:22:05;15.60;;;10.23;;
63276;SDS011;49403;51.046;13.780;2022-08-21T02:22:37;16.17;;;10.80;;
63276;SDS011;49403;51.046;13.780;2022-08-21T02:23:09;19.35;;;11.38;;
63276;SDS011;49403;51.046;13.780;2022-08-21T02:23:40;21.05;;;10.95;;
63276;SDS011;49403;51.046;13.780;2022-08-21T02:24:11;17.60;;;11.40;;
63276;SDS011;49403;51.046;13.780;2022-08-21T02:24:42;18.20;;;10.75;;
63276;SDS011;49403;51.046;13.780;2022-08-21T02:25:15;17.75;;;11.18;;
63276;SDS011;49403;51.046;13.780;2022-08-21T02:25:47;17.23;;;11.52;;
63276;SDS011;49403;51.046;13.780;2022-08-21T02:26:18;17.30;;;10.57;;
63276;SDS011;49403;51.046;13.780;2022-08-21T02:26:49;16.27;;;11.18;;
63276;SDS011;49403;51.046;13.780;2022-08-21T02:27:19;16.35;;;10.73;;
63276;SDS011;49403;51.046;13.780;2022-08-21T02:27:51;16.10;;;10.63;;
63276;SDS011;49403;51.046;13.780;2022-08-21T02:28:23;15.75;;;10.77;;
63276;SDS011;49403;51.046;13.780;2022-08-21T02:28:54;14.57;;;10.77;;
63276;SDS011;49403;51.046;13.780;2022-08-21T02:29:25;18.05;;;10.68;;
63276;SDS011;49403;51.046;13.780;2022-08-21T02:29:56;17.05;;;11.20;;
63276;SDS011;49403;51.046;13.780;2022-08-21T02:30:29;16.70;;;10.85;;
63276;SDS011;49403;51.046;13.780;2022-08-21T02:31:02;20.08;;;10.68;;
63276;SDS011;49403;51.046;13.780;2022-08-21T02:31:33;16.85;;;10.38;;
63276;SDS011;49403;51.046;13.780;2022-08-21T02:32:04;17.30;;;10.77;;
63276;SDS011;49403;51.046;13.780;2022-08-21T02:32:35;15.57;;;10.55;;
63276;SDS011;49403;51.046;13.780;2022-08-21T02:33:06;17.15;;;10.77;;
63276;SDS011;49403;51.046;13.780;2022-08-21T02:33:39;16.90;;;10.85;;
63276;SDS011;49403;51.046;13.780;2022-08-21T02:34:10;18.30;;;10.45;;
63276;SDS011;49403;51.046;13.780;2022-08-21T02:34:41;17.02;;;9.90;;
63276;SDS011;49403;51.046;13.780;2022-08-21T02:35:12;13.10;;;10.10;;
63276;SDS011;49403;51.046;13.780;2022-08-21T02:35:44;13.38;;;10.48;;
63276;SDS011;49403;51.046;13.780;2022-08-21T02:36:17;14.05;;;10.45;;
63276;SDS011;49403;51.046;13.780;2022-08-21T02:36:47;14.77;;;10.23;;
63276;SDS011;49403;51.046;13.780;2022-08-21T02:37:19;12.63;;;9.70;;
63276;SDS011;49403;51.046;13.780;2022-08-21T02:37:51;15.70;;;10.63;;
63276;SDS011;49403;51.046;13.780;2022-08-21T02:38:29;13.20;;;9.45;;
63276;SDS011;49403;51.046;13.780;2022-08-21T02:39:03;18.38;;;9.93;;
63276;SDS011;49403;51.046;13.780;2022-08-21T02:39:34;15.57;;;10.25;;
63276;SDS011;49403;51.046;13.780;2022-08-21T02:40:05;15.13;;;10.25;;
63276;SDS011;49403;51.046;13.780;2022-08-21T02:40:36;19.52;;;10.45;;
63276;SDS011;49403;51.046;13.780;2022-08-21T02:41:12;14.18;;;9.85;;
63276;SDS011;49403;51.046;13.780;2022-08-21T02:41:45;15.45;;;10.32;;
63276;SDS011;49403;51.046;13.780;2022-08-21T02:42:16;13.43;;;9.93;;
63276;SDS011;49403;51.046;13.780;2022-08-21T02:42:47;13.77;;;10.15;;
63276;SDS011;49403;51.046;13.780;2022-08-21T02:43:19;13.32;;;10.32;;
63276;SDS011;49403;51.046;13.780;2022-08-21T02:43:51;18.92;;;10.27;;
63276;SDS011;49403;51.046;13.780;2022-08-21T02:44:22;13.23;;;10.20;;
63276;SDS011;49403;51.046;13.780;2022-08-21T02:44:53;14.70;;;10.05;;
63276;SDS011;49403;51.046;13.780;2022-08-21T02:45:24;16.33;;;10.25;;
63276;SDS011;49403;51.046;13.780;2022-08-21T02:45:55;13.68;;;9.98;;
63276;SDS011;49403;51.046;13.780;2022-08-21T02:46:27;14.73;;;9.43;;
63276;SDS011;49403;51.046;13.780;2022-08-21T02:46:58;15.30;;;10.18;;
63276;SDS011;49403;51.046;13.780;2022-08-21T02:47:29;15.23;;;10.73;;
63276;SDS011;49403;51.046;13.780;2022-08-21T02:48:01;13.27;;;10.27;;
63276;SDS011;49403;51.046;13.780;2022-08-21T02:48:35;13.30;;;10.10;;
63276;SDS011;49403;51.046;13.780;2022-08-21T02:49:06;17.95;;;10.75;;
63276;SDS011;49403;51.046;13.780;2022-08-21T02:49:37;15.23;;;10.43;;
63276;SDS011;49403;51.046;13.780;2022-08-21T02:50:08;14.20;;;10.10;;
63276;SDS011;49403;51.046;13.780;2022-08-21T02:50:43;17.45;;;10.32;;
63276;SDS011;49403;51.046;13.780;2022-08-21T02:51:17;15.88;;;10.32;;
63276;SDS011;49403;51.046;13.780;2022-08-21T02:51:49;13.88;;;10.55;;
63276;SDS011;49403;51.046;13.780;2022-08-21T02:52:21;14.48;;;10.55;;
63276;SDS011;49403;51.046;13.780;2022-08-21T02:52:52;15.77;;;10.55;;
63276;SDS011;49403;51.046;13.780;2022-08-21T02:53:23;16.45;;;10.65;;
63276;SDS011;49403;51.046;13.780;2022-08-21T02:53:55;16.83;;;10.48;;
63276;SDS011;49403;51.046;13.780;2022-08-21T02:54:26;13.98;;;9.95;;
63276;SDS011;49403;51.046;13.780;2022-08-21T02:54:57;15.98;;;10.27;;
63276;SDS011;49403;51.046;13.780;2022-08-21T02:55:28;14.27;;;10.02;;
63276;SDS011;49403;51.046;13.780;2022-08-21T02:56:01;15.68;;;9.85;;
63276;SDS011;49403;51.046;13.780;2022-08-21T02:56:34;15.23;;;10.40;;
63276;SDS011;49403;51.046;13.780;2022-08-21T02:57:05;14.05;;;10.18;;
63276;SDS011;49403;51.046;13.780;2022-08-21T02:57:35;15.40;;;10.50;;
63276;SDS011;49403;51.046;13.780;2022-08-21T02:58:07;18.08;;;10.68;;
63276;SDS011;49403;51.046;13.780;2022-08-21T02:58:39;15.57;;;10.57;;
63276;SDS011;49403;51.046;13.780;2022-08-21T02:59:18;13.35;;;10.07;;
63276;SDS011;49403;51.046;13.780;2022-08-21T02:59:48;14.55;;;10.07;;
63276;SDS011;49403;51.046;13.780;2022-08-21T03:00:20;18.92;;;10.52;;
63276;SDS011;49403;51.046;13.780;2022-08-21T03:00:53;15.88;;;10.27;;
63276;SDS011;49403;51.046;13.780;2022-08-21T03:01:24;14.93;;;10.50;;
63276;SDS011;49403;51.046;13.780;2022-08-21T03:01:55;16.55;;;10.88;;
63276;SDS011;49403;51.046;13.780;2022-08-21T03:02:26;16.08;;;10.85;;
63276;SDS011;49403;51.046;13.780;2022-08-21T03:02:57;16.10;;;10.63;;
63276;SDS011;49403;51.046;13.780;2022-08-21T03:03:28;15.05;;;10.68;;
63276;SDS011;49403;51.046;13.780;2022-08-21T03:03:59;14.55;;;10.25;;
63276;SDS011;49403;51.046;13.780;2022-08-21T03:04:30;17.13;;;10.88;;
63276;SDS011;49403;51.046;13.780;2022-08-21T03:05:02;16.17;;;10.38;;
63276;SDS011;49403;51.046;13.780;2022-08-21T03:05:34;14.85;;;10.65;;